createdAt,value
2023-04-09T00:01:26.079Z,91.87
2023-04-09T00:06:28.968Z,92.79
2023-04-09T00:11:32.006Z,92.83
2023-04-09T00:16:36.289Z,92.38
2023-04-09T00:21:39.234Z,91.99
2023-04-09T00:26:42.112Z,91.87
2023-04-09T00:31:46.362Z,92.12
2023-04-09T00:36:49.396Z,92.93
2023-04-09T00:41:57.274Z,92.78
2023-04-09T00:47:01.799Z,93.03
2023-04-09T00:52:05.012Z,92.87
2023-04-09T00:57:08.055Z,91.98
2023-04-09T01:02:12.966Z,92.50
2023-04-09T01:07:23.302Z,93.86
2023-04-09T01:12:33.985Z,93.36
2023-04-09T01:17:45.302Z,93.32
2023-04-09T01:23:02.271Z,93.79
2023-04-09T01:28:16.508Z,93.59
2023-04-09T01:33:21.441Z,94.46
2023-04-09T01:38:25.638Z,95.15
2023-04-09T01:43:31.549Z,94.40
2023-04-09T01:48:35.438Z,95.74
2023-04-09T01:53:38.524Z,96.71
2023-04-09T01:58:42.953Z,95.19
2023-04-09T02:03:50.038Z,94.86
2023-04-09T02:08:54.726Z,96.49
2023-04-09T02:13:59.664Z,95.46
2023-04-09T02:19:02.675Z,94.45
2023-04-09T02:24:05.937Z,94.18
2023-04-09T02:29:10.289Z,94.15
2023-04-09T02:34:13.153Z,94.24
2023-04-09T02:39:16.173Z,93.83
2023-04-09T02:44:20.583Z,93.20
2023-04-09T02:49:23.723Z,93.13
2023-04-09T02:54:26.670Z,95.13
2023-04-09T02:59:32.967Z,94.81
2023-04-09T03:04:35.995Z,94.00
2023-04-09T03:09:38.963Z,93.65
2023-04-09T03:14:43.212Z,93.54
2023-04-09T03:19:46.153Z,93.63
2023-04-09T03:24:51.052Z,93.47
2023-04-09T03:29:58.184Z,93.34
2023-04-09T03:35:10.478Z,94.36
2023-04-09T03:40:15.480Z,93.68
2023-04-09T03:45:19.786Z,94.26
2023-04-09T03:50:25.155Z,94.72
2023-04-09T03:55:31.367Z,94.64
2023-04-09T04:00:39.211Z,95.18
2023-04-09T04:06:06.425Z,95.59
2023-04-09T04:11:20.431Z,95.67
2023-04-09T04:16:25.712Z,95.77
2023-04-09T04:21:29.983Z,95.66
2023-04-09T04:26:37.032Z,95.74
2023-04-09T04:31:41.386Z,95.64
2023-04-09T04:36:45.160Z,96.43
2023-04-09T04:41:48.465Z,96.44
2023-04-09T04:46:58.455Z,96.15
2023-04-09T04:52:01.433Z,96.28
2023-04-09T04:57:04.789Z,96.90
2023-04-09T05:02:16.305Z,97.45
2023-04-09T05:07:45.631Z,96.31
2023-04-09T05:12:48.910Z,96.18
2023-04-09T05:18:02.712Z,96.33
2023-04-09T05:23:06.246Z,95.51
2023-04-09T05:28:16.829Z,95.56
2023-04-09T05:33:22.477Z,95.69
2023-04-09T05:38:26.526Z,95.93
2023-04-09T05:43:33.422Z,95.76
2023-04-09T05:48:37.960Z,94.24
2023-04-09T05:53:42.825Z,92.51
2023-04-09T05:58:47.671Z,90.36
2023-04-09T06:03:54.087Z,86.32
2023-04-09T06:08:59.161Z,90.47
2023-04-09T06:14:02.058Z,86.72
2023-04-09T06:19:06.290Z,85.35
2023-04-09T06:24:09.237Z,83.37
2023-04-09T06:29:12.149Z,81.53
2023-04-09T06:34:16.368Z,81.44
2023-04-09T06:39:19.297Z,80.65
2023-04-09T06:44:24.311Z,80.43
2023-04-09T06:49:28.904Z,78.53
2023-04-09T06:54:31.828Z,77.69
2023-04-09T06:59:34.787Z,77.57
2023-04-09T07:04:39.159Z,75.63
2023-04-09T07:09:42.190Z,78.38
2023-04-09T07:14:45.039Z,78.61
2023-04-09T07:19:49.345Z,76.02
2023-04-09T07:24:55.139Z,71.09
2023-04-09T07:29:59.523Z,70.37
2023-04-09T07:35:05.077Z,69.81
2023-04-09T07:40:09.320Z,69.54
2023-04-09T07:45:12.229Z,68.40
2023-04-09T07:50:16.930Z,67.91
2023-04-09T07:55:20.285Z,64.89
2023-04-09T08:00:23.330Z,66.04
2023-04-09T08:05:28.405Z,71.96
2023-04-09T08:10:31.310Z,69.07
2023-04-09T08:15:34.202Z,67.56
2023-04-09T08:20:44.820Z,64.48
2023-04-09T08:25:47.838Z,64.43
2023-04-09T08:30:50.857Z,63.80
2023-04-09T08:35:55.074Z,63.09
2023-04-09T08:40:57.964Z,63.17
2023-04-09T08:46:03.169Z,60.06
2023-04-09T08:51:07.814Z,60.70
2023-04-09T08:56:10.829Z,62.92
2023-04-09T09:01:21.464Z,60.98
2023-04-09T09:06:28.678Z,62.57
2023-04-09T09:11:32.010Z,64.42
2023-04-09T09:16:35.954Z,65.57
2023-04-09T09:21:40.742Z,63.47
2023-04-09T09:26:43.774Z,63.94
2023-04-09T09:31:51.591Z,66.02
2023-04-09T09:36:55.910Z,60.88
2023-04-09T09:42:09.042Z,59.96
2023-04-09T09:47:14.293Z,64.54
2023-04-09T09:52:25.546Z,63.09
2023-04-09T09:57:32.589Z,60.10
2023-04-09T10:02:44.938Z,60.51
2023-04-09T10:07:50.398Z,61.09
2023-04-09T10:12:53.589Z,60.53
2023-04-09T10:17:56.936Z,61.11
2023-04-09T10:23:07.026Z,60.82
2023-04-09T10:28:17.528Z,57.46
2023-04-09T10:33:26.514Z,61.40
2023-04-09T10:38:38.414Z,61.70
2023-04-09T10:43:42.090Z,62.86
2023-04-09T10:48:45.008Z,64.67
2023-04-09T10:53:54.274Z,62.62
2023-04-09T10:58:57.162Z,61.64
2023-04-09T11:04:10.883Z,59.42
2023-04-09T11:09:15.226Z,59.31
2023-04-09T11:14:20.732Z,59.71
2023-04-09T11:19:24.440Z,58.38
2023-04-09T11:24:40.787Z,61.29
2023-04-09T11:29:43.703Z,57.89
2023-04-09T11:34:46.566Z,57.33
2023-04-09T11:39:55.581Z,56.89
2023-04-09T11:45:01.063Z,55.34
2023-04-09T11:50:04.212Z,58.02
2023-04-09T11:55:09.705Z,57.60
2023-04-09T12:00:14.589Z,56.61
2023-04-09T12:05:24.690Z,56.06
2023-04-09T12:10:33.138Z,57.42
2023-04-09T12:15:37.085Z,56.26
2023-04-09T12:20:42.311Z,53.11
2023-04-09T12:25:47.669Z,52.39
2023-04-09T12:30:52.109Z,54.69
2023-04-09T12:35:56.082Z,58.28
2023-04-09T12:41:01.265Z,59.30
2023-04-09T12:46:04.519Z,57.23
2023-04-09T12:51:07.664Z,53.15
2023-04-09T12:56:11.967Z,54.92
2023-04-09T13:01:15.044Z,52.29
2023-04-09T13:06:17.996Z,50.43
2023-04-09T13:11:22.296Z,51.40
2023-04-09T13:16:26.050Z,51.48
2023-04-09T13:21:28.980Z,53.34
2023-04-09T13:26:33.271Z,52.23
2023-04-09T13:31:36.904Z,55.08
2023-04-09T13:36:39.803Z,52.55
2023-04-09T13:41:44.648Z,52.55
2023-04-09T13:46:47.521Z,53.72
2023-04-09T13:51:50.938Z,54.02
2023-04-09T13:56:55.447Z,55.22
2023-04-09T14:01:58.669Z,54.68
2023-04-09T14:07:01.726Z,56.03
2023-04-09T14:12:06.468Z,51.10
2023-04-09T14:17:09.348Z,53.46
2023-04-09T14:22:12.548Z,53.97
2023-04-09T14:27:16.873Z,54.30
2023-04-09T14:32:20.096Z,53.62
2023-04-09T14:37:23.099Z,53.20
2023-04-09T14:42:27.400Z,49.82
2023-04-09T14:47:30.483Z,50.31
2023-04-09T14:52:33.416Z,50.32
2023-04-09T14:57:37.718Z,51.00
2023-04-09T15:02:41.549Z,52.35
2023-04-09T15:07:44.743Z,53.18
2023-04-09T15:12:49.064Z,53.36
2023-04-09T15:17:52.123Z,53.19
2023-04-09T15:22:55.014Z,49.77
2023-04-09T15:27:59.995Z,51.54
2023-04-09T15:33:03.040Z,50.47
2023-04-09T15:38:06.056Z,50.58
2023-04-09T15:43:10.402Z,49.42
2023-04-09T15:48:13.416Z,48.18
2023-04-09T15:53:16.748Z,43.06
2023-04-09T15:58:21.095Z,45.25
2023-04-09T16:03:23.977Z,46.47
2023-04-09T16:08:26.931Z,47.58
2023-04-09T16:13:31.318Z,47.47
2023-04-09T16:18:34.838Z,48.77
2023-04-09T16:23:38.463Z,48.38
2023-04-09T16:28:42.760Z,51.18
2023-04-09T16:33:45.862Z,52.41
2023-04-09T16:38:49.943Z,52.93
2023-04-09T16:43:54.332Z,51.36
2023-04-09T16:48:57.234Z,53.14
2023-04-09T16:54:00.361Z,54.75
2023-04-09T16:59:04.749Z,55.85
2023-04-09T17:04:07.850Z,56.87
2023-04-09T17:09:10.895Z,57.02
2023-04-09T17:14:15.427Z,57.91
2023-04-09T17:19:18.534Z,58.58
2023-04-09T17:24:21.470Z,59.28
2023-04-09T17:29:25.771Z,59.84
2023-04-09T17:34:28.955Z,60.69
2023-04-09T17:39:32.073Z,62.14
2023-04-09T17:44:36.997Z,63.02
2023-04-09T17:49:40.323Z,64.92
2023-04-09T17:54:45.464Z,65.35
2023-04-09T17:59:49.999Z,66.38
2023-04-09T18:04:53.124Z,66.39
2023-04-09T18:09:56.233Z,66.82
2023-04-09T18:15:00.504Z,66.88
2023-04-09T18:20:03.513Z,68.08
2023-04-09T18:25:07.525Z,67.95
2023-04-09T18:30:12.924Z,68.70
2023-04-09T18:35:17.428Z,69.32
2023-04-09T18:40:20.688Z,70.39
2023-04-09T18:45:25.488Z,70.80
2023-04-09T18:50:28.450Z,71.47
2023-04-09T18:55:31.772Z,71.90
2023-04-09T19:00:36.572Z,72.47
2023-04-09T19:05:39.710Z,73.30
2023-04-09T19:10:42.620Z,73.26
2023-04-09T19:15:46.964Z,73.02
2023-04-09T19:20:49.887Z,72.34
2023-04-09T19:25:55.167Z,73.60
2023-04-09T19:31:01.397Z,73.64
2023-04-09T19:36:07.930Z,74.40
2023-04-09T19:41:10.863Z,75.44
2023-04-09T19:46:15.434Z,74.87
2023-04-09T19:51:18.656Z,76.07
2023-04-09T19:56:22.119Z,75.53
2023-04-09T20:01:26.764Z,76.38
2023-04-09T20:06:30.760Z,76.00
2023-04-09T20:11:33.710Z,76.73
2023-04-09T20:16:38.249Z,76.84
2023-04-09T20:21:41.969Z,77.75
2023-04-09T20:26:44.912Z,78.27
2023-04-09T20:31:49.330Z,78.22
2023-04-09T20:36:52.344Z,78.37
2023-04-09T20:41:56.554Z,78.39
2023-04-09T20:47:01.137Z,78.82
2023-04-09T20:52:04.074Z,79.09
2023-04-09T20:57:07.173Z,79.62
2023-04-09T21:07:16.671Z,80.41
2023-04-09T21:12:19.600Z,80.75
2023-04-09T21:17:23.911Z,81.09
2023-04-09T21:22:26.828Z,81.28
2023-04-09T21:27:29.767Z,81.41
2023-04-09T21:32:34.109Z,81.11
2023-04-09T21:37:37.640Z,80.73
2023-04-09T21:42:40.657Z,82.32
2023-04-09T21:47:45.480Z,82.82
2023-04-09T21:52:48.470Z,83.20
2023-04-09T21:57:53.591Z,82.82
2023-04-09T22:03:01.264Z,82.76
2023-04-09T22:08:04.424Z,82.51
2023-04-09T22:13:07.747Z,83.63
2023-04-09T22:18:11.988Z,83.61
2023-04-09T22:23:14.864Z,83.61
2023-04-09T22:28:17.805Z,84.76
2023-04-09T22:33:22.076Z,83.15
2023-04-09T22:38:25.376Z,84.49
2023-04-09T22:43:28.505Z,85.02
2023-04-09T22:48:35.887Z,84.09
2023-04-09T22:53:43.876Z,84.33
2023-04-09T22:58:46.815Z,84.55
2023-04-09T23:03:51.640Z,85.55
2023-04-09T23:08:54.790Z,85.69
2023-04-09T23:13:57.876Z,86.60
2023-04-09T23:19:02.106Z,86.41
2023-04-09T23:24:05.410Z,86.55
2023-04-09T23:29:08.317Z,86.20
2023-04-09T23:34:13.005Z,86.15
2023-04-09T23:39:15.935Z,86.25
2023-04-09T23:44:18.783Z,85.86
2023-04-09T23:49:23.161Z,86.44
2023-04-09T23:54:26.055Z,86.79
2023-04-09T23:59:31.131Z,86.79
